Cicero, Illinois
Current Conditions -  °F | °C
As of 9:53 PM on Wednesday 28 Jan 2015 (Local Time) from KMDW Reporting Station
Overcast Overcast  
Wind Chill: 26°   Ceiling: 11000
Heat Index: 35°   Visibility: 10mi
Dew Point: 21°   Wind: 15mph
Humidity: 57%   Direction: 170°S
Pressure: 29.89"   Gusts: 23mph
Location:  41.84°N, 87.75°W
Report Text: KMDW 290353Z 17013G20KT 10SM BKN110 BKN170 OVC240 02/M06 A2989 RMK AO2 SLP134 T00171061
Loading
Personal Weather Stations






























Interactive Weather Map New forecast layout! Learn more

10-Day Weather Forecast

Advertisements
Track Severe Weather on mobile